CPX224 Details

Departure: Los Angeles International Airport (KLAX) at 1730 UTC
Arrival: Ted Stevens Anchorage International Airport (PANC) at 2210 UTC
Route: SUMMR1 SCTRR PYE J143 ENI FOT BOXER B453 MDO WITTI4


Current Weather Information
KLAX 212153Z 24018G25KT 10SM FEW025 SCT200 18/09 A2984 RMK AO2 PK WND 25028/2138 SLPNO T01830094 $
PANC 212153Z 34005KT 10SM FEW030 SCT200 13/06 A3006 RMK AO2 SLP179 T01280056 $